sensor_id;sensor_type;location;lat;lon;timestamp;pressure;altitude;pressure_sealevel;temperature;humidity
9822;BME280;4950;46.042;14.472;2023-04-24T00:00:09;97184.56;;;14.95;61.32
9822;BME280;4950;46.042;14.472;2023-04-24T00:02:37;97181.72;;;14.97;61.19
9822;BME280;4950;46.042;14.472;2023-04-24T00:05:05;97178.31;;;14.96;60.86
9822;BME280;4950;46.042;14.472;2023-04-24T00:07:33;97182.50;;;14.97;60.16
9822;BME280;4950;46.042;14.472;2023-04-24T00:10:00;97171.47;;;14.95;60.59
9822;BME280;4950;46.042;14.472;2023-04-24T00:12:27;97175.44;;;14.86;60.48
9822;BME280;4950;46.042;14.472;2023-04-24T00:14:53;97166.41;;;14.82;60.01
9822;BME280;4950;46.042;14.472;2023-04-24T00:17:20;97167.94;;;14.71;60.63
9822;BME280;4950;46.042;14.472;2023-04-24T00:19:49;97164.03;;;14.62;60.90
9822;BME280;4950;46.042;14.472;2023-04-24T00:22:17;97164.47;;;14.59;61.01
9822;BME280;4950;46.042;14.472;2023-04-24T00:24:46;97163.78;;;14.45;61.15
9822;BME280;4950;46.042;14.472;2023-04-24T00:27:12;97159.66;;;14.37;61.19
9822;BME280;4950;46.042;14.472;2023-04-24T00:29:39;97155.84;;;14.33;61.68
9822;BME280;4950;46.042;14.472;2023-04-24T00:32:06;97154.75;;;14.41;61.35
9822;BME280;4950;46.042;14.472;2023-04-24T00:34:32;97151.06;;;14.49;61.21
9822;BME280;4950;46.042;14.472;2023-04-24T00:37:01;97158.31;;;14.47;60.41
9822;BME280;4950;46.042;14.472;2023-04-24T00:39:27;97158.38;;;14.21;60.95
9822;BME280;4950;46.042;14.472;2023-04-24T00:41:54;97153.22;;;14.15;61.46
9822;BME280;4950;46.042;14.472;2023-04-24T00:44:22;97158.03;;;13.93;61.93
9822;BME280;4950;46.042;14.472;2023-04-24T00:46:49;97150.88;;;13.81;62.56
9822;BME280;4950;46.042;14.472;2023-04-24T00:49:19;97152.91;;;13.79;62.64
9822;BME280;4950;46.042;14.472;2023-04-24T00:51:47;97152.34;;;13.71;62.79
9822;BME280;4950;46.042;14.472;2023-04-24T00:54:16;97152.22;;;13.66;63.01
9822;BME280;4950;46.042;14.472;2023-04-24T00:56:43;97149.06;;;13.57;63.45
9822;BME280;4950;46.042;14.472;2023-04-24T00:59:11;97139.91;;;13.48;63.90
9822;BME280;4950;46.042;14.472;2023-04-24T01:01:38;97140.09;;;13.46;64.05
9822;BME280;4950;46.042;14.472;2023-04-24T01:04:07;97137.72;;;13.45;64.24
9822;BME280;4950;46.042;14.472;2023-04-24T01:06:38;97139.72;;;13.42;64.39
9822;BME280;4950;46.042;14.472;2023-04-24T01:09:05;97142.34;;;13.42;64.77
9822;BME280;4950;46.042;14.472;2023-04-24T01:11:36;97143.31;;;13.48;64.62
9822;BME280;4950;46.042;14.472;2023-04-24T01:14:03;97147.13;;;13.46;64.83
9822;BME280;4950;46.042;14.472;2023-04-24T01:16:30;97136.09;;;13.43;64.95
9822;BME280;4950;46.042;14.472;2023-04-24T01:18:56;97131.13;;;13.35;65.34
9822;BME280;4950;46.042;14.472;2023-04-24T01:21:23;97143.81;;;13.25;65.89
9822;BME280;4950;46.042;14.472;2023-04-24T01:23:54;97135.00;;;13.26;66.16
9822;BME280;4950;46.042;14.472;2023-04-24T01:26:22;97131.16;;;13.29;66.40
9822;BME280;4950;46.042;14.472;2023-04-24T01:28:50;97129.78;;;13.26;66.65
9822;BME280;4950;46.042;14.472;2023-04-24T01:31:17;97138.00;;;13.23;67.06
9822;BME280;4950;46.042;14.472;2023-04-24T01:33:44;97131.94;;;13.29;67.04
9822;BME280;4950;46.042;14.472;2023-04-24T01:36:11;97129.56;;;13.34;67.54
9822;BME280;4950;46.042;14.472;2023-04-24T01:38:38;97127.91;;;13.40;67.05
9822;BME280;4950;46.042;14.472;2023-04-24T01:41:06;97125.47;;;13.45;67.07
9822;BME280;4950;46.042;14.472;2023-04-24T01:43:33;97117.44;;;13.47;67.11
9822;BME280;4950;46.042;14.472;2023-04-24T01:46:00;97124.84;;;13.50;66.79
9822;BME280;4950;46.042;14.472;2023-04-24T01:48:26;97117.38;;;13.53;66.89
9822;BME280;4950;46.042;14.472;2023-04-24T01:50:53;97113.97;;;13.53;66.93
9822;BME280;4950;46.042;14.472;2023-04-24T01:53:20;97115.16;;;13.57;66.97
9822;BME280;4950;46.042;14.472;2023-04-24T01:55:47;97112.13;;;13.60;67.08
9822;BME280;4950;46.042;14.472;2023-04-24T01:58:15;97103.28;;;13.61;67.07
9822;BME280;4950;46.042;14.472;2023-04-24T02:00:42;97100.66;;;13.61;67.16
9822;BME280;4950;46.042;14.472;2023-04-24T02:03:08;97095.84;;;13.65;67.31
9822;BME280;4950;46.042;14.472;2023-04-24T02:05:35;97092.44;;;13.64;67.39
9822;BME280;4950;46.042;14.472;2023-04-24T02:08:02;97087.00;;;13.66;67.37
9822;BME280;4950;46.042;14.472;2023-04-24T02:10:28;97087.00;;;13.66;67.49
9822;BME280;4950;46.042;14.472;2023-04-24T02:12:55;97078.16;;;13.67;67.52
9822;BME280;4950;46.042;14.472;2023-04-24T02:15:23;97079.19;;;13.66;67.71
9822;BME280;4950;46.042;14.472;2023-04-24T02:17:50;97075.56;;;13.67;67.92
9822;BME280;4950;46.042;14.472;2023-04-24T02:20:17;97068.31;;;13.69;68.08
9822;BME280;4950;46.042;14.472;2023-04-24T02:22:45;97069.13;;;13.69;68.46
9822;BME280;4950;46.042;14.472;2023-04-24T02:25:11;97061.06;;;13.71;68.47
9822;BME280;4950;46.042;14.472;2023-04-24T02:27:38;97056.81;;;13.76;68.54
9822;BME280;4950;46.042;14.472;2023-04-24T02:30:06;97062.03;;;13.76;68.44
9822;BME280;4950;46.042;14.472;2023-04-24T02:32:35;97053.19;;;13.77;68.48
9822;BME280;4950;46.042;14.472;2023-04-24T02:35:01;97052.63;;;13.75;68.62
9822;BME280;4950;46.042;14.472;2023-04-24T02:37:28;97050.00;;;13.75;68.72
9822;BME280;4950;46.042;14.472;2023-04-24T02:39:55;97045.78;;;13.74;68.92
9822;BME280;4950;46.042;14.472;2023-04-24T02:42:22;97044.78;;;13.75;69.02
9822;BME280;4950;46.042;14.472;2023-04-24T02:44:48;97042.97;;;13.76;68.94
9822;BME280;4950;46.042;14.472;2023-04-24T02:47:16;97046.81;;;13.73;68.92
9822;BME280;4950;46.042;14.472;2023-04-24T02:49:44;97050.44;;;13.72;69.29
9822;BME280;4950;46.042;14.472;2023-04-24T02:52:11;97051.28;;;13.66;68.95
9822;BME280;4950;46.042;14.472;2023-04-24T02:54:38;97047.72;;;13.60;69.07
9822;BME280;4950;46.042;14.472;2023-04-24T02:57:05;97042.94;;;13.57;69.24
9822;BME280;4950;46.042;14.472;2023-04-24T02:59:31;97051.19;;;13.54;69.25
9822;BME280;4950;46.042;14.472;2023-04-24T03:01:58;97045.22;;;13.47;69.21
9822;BME280;4950;46.042;14.472;2023-04-24T03:04:25;97043.84;;;13.45;69.51
9822;BME280;4950;46.042;14.472;2023-04-24T03:06:53;97040.25;;;13.46;69.32
9822;BME280;4950;46.042;14.472;2023-04-24T03:09:20;97040.66;;;13.42;69.35
9822;BME280;4950;46.042;14.472;2023-04-24T03:11:47;97042.22;;;13.43;69.32
9822;BME280;4950;46.042;14.472;2023-04-24T03:14:14;97032.84;;;13.42;69.39
9822;BME280;4950;46.042;14.472;2023-04-24T03:16:41;97032.84;;;13.42;69.41
9822;BME280;4950;46.042;14.472;2023-04-24T03:19:08;97031.66;;;13.38;69.25
9822;BME280;4950;46.042;14.472;2023-04-24T03:21:35;97039.63;;;13.43;69.00
9822;BME280;4950;46.042;14.472;2023-04-24T03:24:07;97031.47;;;13.40;69.21
9822;BME280;4950;46.042;14.472;2023-04-24T03:26:34;97027.63;;;13.42;69.30
9822;BME280;4950;46.042;14.472;2023-04-24T03:29:00;97031.09;;;13.36;69.13
9822;BME280;4950;46.042;14.472;2023-04-24T03:31:27;97032.06;;;13.35;69.34
9822;BME280;4950;46.042;14.472;2023-04-24T03:33:54;97018.69;;;13.25;69.70
9822;BME280;4950;46.042;14.472;2023-04-24T03:36:21;97015.91;;;13.20;70.03
9822;BME280;4950;46.042;14.472;2023-04-24T03:38:48;97012.13;;;13.22;69.77
9822;BME280;4950;46.042;14.472;2023-04-24T03:41:16;97018.69;;;13.25;69.42
9822;BME280;4950;46.042;14.472;2023-04-24T03:43:43;97012.97;;;13.16;69.62
9822;BME280;4950;46.042;14.472;2023-04-24T03:46:09;97021.41;;;13.12;69.71
9822;BME280;4950;46.042;14.472;2023-04-24T03:48:36;97018.59;;;13.13;69.93
9822;BME280;4950;46.042;14.472;2023-04-24T03:51:03;97019.81;;;13.11;70.21
9822;BME280;4950;46.042;14.472;2023-04-24T03:53:29;97009.41;;;13.11;70.22
9822;BME280;4950;46.042;14.472;2023-04-24T03:55:56;97016.78;;;13.14;70.41
9822;BME280;4950;46.042;14.472;2023-04-24T03:58:24;97013.16;;;13.15;70.45
9822;BME280;4950;46.042;14.472;2023-04-24T04:00:55;97007.38;;;13.13;70.23
9822;BME280;4950;46.042;14.472;2023-04-24T04:03:23;97007.16;;;13.14;70.65
9822;BME280;4950;46.042;14.472;2023-04-24T04:05:50;97006.94;;;13.16;71.44
9822;BME280;4950;46.042;14.472;2023-04-24T04:08:18;97004.56;;;13.14;71.89
9822;BME280;4950;46.042;14.472;2023-04-24T04:10:45;96998.50;;;13.20;71.67
9822;BME280;4950;46.042;14.472;2023-04-24T04:13:12;97006.69;;;13.24;72.18
9822;BME280;4950;46.042;14.472;2023-04-24T04:15:40;97010.28;;;13.23;73.06
9822;BME280;4950;46.042;14.472;2023-04-24T04:18:07;97008.91;;;13.20;72.90
9822;BME280;4950;46.042;14.472;2023-04-24T04:20:33;97006.13;;;13.15;72.75
9822;BME280;4950;46.042;14.472;2023-04-24T04:23:00;97015.81;;;13.08;72.95
9822;BME280;4950;46.042;14.472;2023-04-24T04:25:27;97015.00;;;13.08;73.04
9822;BME280;4950;46.042;14.472;2023-04-24T04:28:00;97019.44;;;13.07;73.19
9822;BME280;4950;46.042;14.472;2023-04-24T04:30:27;97007.19;;;13.08;73.19
9822;BME280;4950;46.042;14.472;2023-04-24T04:32:56;97006.78;;;13.11;73.37
9822;BME280;4950;46.042;14.472;2023-04-24T04:35:22;97002.56;;;13.10;73.86
9822;BME280;4950;46.042;14.472;2023-04-24T04:37:50;97001.34;;;13.12;73.80
9822;BME280;4950;46.042;14.472;2023-04-24T04:40:17;97001.72;;;13.16;73.88
9822;BME280;4950;46.042;14.472;2023-04-24T04:42:43;96999.94;;;13.16;74.31
9822;BME280;4950;46.042;14.472;2023-04-24T04:45:11;97005.72;;;13.18;74.38
9822;BME280;4950;46.042;14.472;2023-04-24T04:47:38;96997.09;;;13.18;74.40
9822;BME280;4950;46.042;14.472;2023-04-24T04:50:07;97000.28;;;13.20;74.61
9822;BME280;4950;46.042;14.472;2023-04-24T04:52:33;97004.91;;;13.18;74.97
9822;BME280;4950;46.042;14.472;2023-04-24T04:55:00;97015.34;;;13.18;75.27
9822;BME280;4950;46.042;14.472;2023-04-24T04:57:27;97012.72;;;13.18;75.49
9822;BME280;4950;46.042;14.472;2023-04-24T04:59:53;97014.94;;;13.21;75.70
9822;BME280;4950;46.042;14.472;2023-04-24T05:02:20;97019.50;;;13.26;76.08
9822;BME280;4950;46.042;14.472;2023-04-24T05:04:47;97017.94;;;13.18;75.90
9822;BME280;4950;46.042;14.472;2023-04-24T05:07:15;97015.97;;;13.13;75.99
9822;BME280;4950;46.042;14.472;2023-04-24T05:09:42;97021.41;;;13.12;75.92
9822;BME280;4950;46.042;14.472;2023-04-24T05:12:10;97017.41;;;13.09;76.61
9822;BME280;4950;46.042;14.472;2023-04-24T05:14:36;97008.81;;;13.09;76.62
9822;BME280;4950;46.042;14.472;2023-04-24T05:17:03;97023.03;;;13.06;77.06
9822;BME280;4950;46.042;14.472;2023-04-24T05:19:30;97026.41;;;13.13;76.82
9822;BME280;4950;46.042;14.472;2023-04-24T05:21:59;97032.25;;;13.09;76.01
9822;BME280;4950;46.042;14.472;2023-04-24T05:24:29;97039.50;;;13.07;75.40
9822;BME280;4950;46.042;14.472;2023-04-24T05:26:56;97038.28;;;13.02;74.78
9822;BME280;4950;46.042;14.472;2023-04-24T05:29:24;97033.78;;;12.91;74.00
9822;BME280;4950;46.042;14.472;2023-04-24T05:31:51;97031.16;;;12.91;74.09
9822;BME280;4950;46.042;14.472;2023-04-24T05:34:18;97034.38;;;12.93;73.94
9822;BME280;4950;46.042;14.472;2023-04-24T05:36:45;97037.41;;;12.83;74.19
9822;BME280;4950;46.042;14.472;2023-04-24T05:39:12;97036.69;;;12.70;74.81
9822;BME280;4950;46.042;14.472;2023-04-24T05:41:40;97040.72;;;12.66;75.17
9822;BME280;4950;46.042;14.472;2023-04-24T05:44:07;97037.75;;;12.62;75.98
9822;BME280;4950;46.042;14.472;2023-04-24T05:46:33;97035.72;;;12.64;76.11
9822;BME280;4950;46.042;14.472;2023-04-24T05:49:00;97030.91;;;12.68;76.21
9822;BME280;4950;46.042;14.472;2023-04-24T05:51:27;97032.22;;;12.77;76.41
9822;BME280;4950;46.042;14.472;2023-04-24T05:53:54;97025.97;;;12.84;76.14
9822;BME280;4950;46.042;14.472;2023-04-24T05:56:20;97025.56;;;12.88;76.17
9822;BME280;4950;46.042;14.472;2023-04-24T05:58:48;97025.53;;;12.94;75.78
9822;BME280;4950;46.042;14.472;2023-04-24T06:01:15;97026.28;;;13.01;75.73
9822;BME280;4950;46.042;14.472;2023-04-24T06:03:42;97026.66;;;13.05;75.91
9822;BME280;4950;46.042;14.472;2023-04-24T06:06:09;97023.00;;;13.13;75.36
9822;BME280;4950;46.042;14.472;2023-04-24T06:08:36;97018.53;;;13.20;75.05
9822;BME280;4950;46.042;14.472;2023-04-24T06:11:02;97017.78;;;13.13;75.04
9822;BME280;4950;46.042;14.472;2023-04-24T06:13:29;97017.59;;;13.14;75.26
9822;BME280;4950;46.042;14.472;2023-04-24T06:15:57;97021.97;;;13.14;75.13
9822;BME280;4950;46.042;14.472;2023-04-24T06:18:24;97019.00;;;13.10;75.49
9822;BME280;4950;46.042;14.472;2023-04-24T06:20:50;97007.78;;;13.10;75.46
9822;BME280;4950;46.042;14.472;2023-04-24T06:23:17;97006.72;;;13.17;75.43
9822;BME280;4950;46.042;14.472;2023-04-24T06:25:44;97011.09;;;13.23;75.50
9822;BME280;4950;46.042;14.472;2023-04-24T06:28:11;97009.25;;;13.31;75.79
9822;BME280;4950;46.042;14.472;2023-04-24T06:30:37;97008.63;;;13.35;75.99
9822;BME280;4950;46.042;14.472;2023-04-24T06:33:05;97003.78;;;13.39;75.48
9822;BME280;4950;46.042;14.472;2023-04-24T06:35:32;97008.34;;;13.43;75.35
9822;BME280;4950;46.042;14.472;2023-04-24T06:37:59;97000.09;;;13.47;75.38
9822;BME280;4950;46.042;14.472;2023-04-24T06:40:25;97000.28;;;13.52;75.20
9822;BME280;4950;46.042;14.472;2023-04-24T06:42:52;96995.19;;;13.57;75.23
9822;BME280;4950;46.042;14.472;2023-04-24T06:45:19;97002.16;;;13.63;75.67
9822;BME280;4950;46.042;14.472;2023-04-24T06:47:46;96998.63;;;13.57;76.01
9822;BME280;4950;46.042;14.472;2023-04-24T06:50:14;97000.34;;;13.63;76.11
9822;BME280;4950;46.042;14.472;2023-04-24T06:52:41;96996.09;;;13.69;76.29
9822;BME280;4950;46.042;14.472;2023-04-24T06:55:08;96987.41;;;13.75;75.90
9822;BME280;4950;46.042;14.472;2023-04-24T06:57:36;96988.41;;;13.74;75.74
9822;BME280;4950;46.042;14.472;2023-04-24T07:00:04;96990.38;;;13.79;75.65
9822;BME280;4950;46.042;14.472;2023-04-24T07:02:32;96985.66;;;13.88;75.36
9822;BME280;4950;46.042;14.472;2023-04-24T07:04:58;96995.22;;;13.94;75.49
9822;BME280;4950;46.042;14.472;2023-04-24T07:07:28;96990.16;;;13.99;75.34
9822;BME280;4950;46.042;14.472;2023-04-24T07:09:54;96992.91;;;14.04;75.82
9822;BME280;4950;46.042;14.472;2023-04-24T07:12:21;97001.53;;;14.05;76.55
9822;BME280;4950;46.042;14.472;2023-04-24T07:14:48;96995.59;;;13.97;78.14
9822;BME280;4950;46.042;14.472;2023-04-24T07:17:15;96995.38;;;13.99;78.75
9822;BME280;4950;46.042;14.472;2023-04-24T07:19:42;96993.72;;;14.05;78.86
9822;BME280;4950;46.042;14.472;2023-04-24T07:22:08;96983.66;;;14.08;79.17
9822;BME280;4950;46.042;14.472;2023-04-24T07:24:38;96992.06;;;14.10;79.55
9822;BME280;4950;46.042;14.472;2023-04-24T07:27:04;96995.81;;;14.14;79.70
9822;BME280;4950;46.042;14.472;2023-04-24T07:29:31;96997.59;;;14.14;80.22
9822;BME280;4950;46.042;14.472;2023-04-24T07:31:58;96989.78;;;14.14;80.97
9822;BME280;4950;46.042;14.472;2023-04-24T07:34:25;96991.38;;;14.15;80.96
9822;BME280;4950;46.042;14.472;2023-04-24T07:36:52;96995.34;;;14.17;80.97
9822;BME280;4950;46.042;14.472;2023-04-24T07:39:18;96994.72;;;14.22;80.50
9822;BME280;4950;46.042;14.472;2023-04-24T07:41:47;96994.34;;;14.18;80.97
9822;BME280;4950;46.042;14.472;2023-04-24T07:44:14;96996.31;;;14.23;80.53
9822;BME280;4950;46.042;14.472;2023-04-24T07:46:41;96985.84;;;14.23;79.93
9822;BME280;4950;46.042;14.472;2023-04-24T07:49:07;96989.88;;;14.26;79.87
9822;BME280;4950;46.042;14.472;2023-04-24T07:51:34;96991.28;;;14.21;79.74
9822;BME280;4950;46.042;14.472;2023-04-24T07:54:03;96990.06;;;14.24;79.33
9822;BME280;4950;46.042;14.472;2023-04-24T07:56:30;96985.66;;;14.25;79.09
9822;BME280;4950;46.042;14.472;2023-04-24T07:58:58;96983.97;;;14.30;78.52
9822;BME280;4950;46.042;14.472;2023-04-24T08:01:26;96985.22;;;14.28;78.41
9822;BME280;4950;46.042;14.472;2023-04-24T08:03:53;96982.16;;;14.31;78.16
9822;BME280;4950;46.042;14.472;2023-04-24T08:06:19;96986.94;;;14.34;78.46
9822;BME280;4950;46.042;14.472;2023-04-24T08:08:46;96980.56;;;14.30;78.04
9822;BME280;4950;46.042;14.472;2023-04-24T08:11:13;96979.53;;;14.31;77.65
9822;BME280;4950;46.042;14.472;2023-04-24T08:13:39;96979.75;;;14.29;77.59
9822;BME280;4950;46.042;14.472;2023-04-24T08:16:08;96980.47;;;14.36;77.44
9822;BME280;4950;46.042;14.472;2023-04-24T08:18:34;96978.09;;;14.35;77.71
9822;BME280;4950;46.042;14.472;2023-04-24T08:21:01;96981.63;;;14.40;77.79
9822;BME280;4950;46.042;14.472;2023-04-24T08:23:28;96975.75;;;14.45;78.07
9822;BME280;4950;46.042;14.472;2023-04-24T08:25:55;96970.06;;;14.48;78.22
9822;BME280;4950;46.042;14.472;2023-04-24T08:28:22;96970.28;;;14.47;78.04
9822;BME280;4950;46.042;14.472;2023-04-24T08:30:49;96976.41;;;14.40;78.20
9822;BME280;4950;46.042;14.472;2023-04-24T08:33:22;96975.97;;;14.44;78.15
9822;BME280;4950;46.042;14.472;2023-04-24T08:35:48;96973.94;;;14.46;78.04
9822;BME280;4950;46.042;14.472;2023-04-24T08:38:15;96971.13;;;14.47;77.68
9822;BME280;4950;46.042;14.472;2023-04-24T08:40:42;96972.69;;;14.48;77.87
9822;BME280;4950;46.042;14.472;2023-04-24T08:43:12;96980.66;;;14.53;78.43
9822;BME280;4950;46.042;14.472;2023-04-24T08:45:39;96975.44;;;14.53;78.22
9822;BME280;4950;46.042;14.472;2023-04-24T08:48:06;96985.91;;;14.53;78.40
9822;BME280;4950;46.042;14.472;2023-04-24T08:50:35;96975.44;;;14.53;78.06
9822;BME280;4950;46.042;14.472;2023-04-24T08:53:02;96974.41;;;14.54;77.48
9822;BME280;4950;46.042;14.472;2023-04-24T08:55:30;96975.22;;;14.55;77.21
9822;BME280;4950;46.042;14.472;2023-04-24T08:57:57;96976.41;;;14.59;76.70
9822;BME280;4950;46.042;14.472;2023-04-24T09:00:25;96974.00;;;14.57;76.79
9822;BME280;4950;46.042;14.472;2023-04-24T09:02:53;96974.94;;;14.63;76.73
9822;BME280;4950;46.042;14.472;2023-04-24T09:05:21;96974.94;;;14.63;77.63
9822;BME280;4950;46.042;14.472;2023-04-24T09:07:53;96973.13;;;14.64;77.76
9822;BME280;4950;46.042;14.472;2023-04-24T09:10:22;96966.06;;;14.64;77.83
9822;BME280;4950;46.042;14.472;2023-04-24T09:12:50;96975.50;;;14.65;78.38
9822;BME280;4950;46.042;14.472;2023-04-24T09:15:17;96970.06;;;14.67;78.58
9822;BME280;4950;46.042;14.472;2023-04-24T09:17:45;96976.44;;;14.71;78.77
9822;BME280;4950;46.042;14.472;2023-04-24T09:20:12;96965.53;;;14.74;78.72
9822;BME280;4950;46.042;14.472;2023-04-24T09:22:39;96968.72;;;14.76;79.00
9822;BME280;4950;46.042;14.472;2023-04-24T09:25:08;96966.69;;;14.78;78.67
9822;BME280;4950;46.042;14.472;2023-04-24T09:27:41;96966.69;;;14.78;78.27
9822;BME280;4950;46.042;14.472;2023-04-24T09:30:09;96963.63;;;14.81;77.62
9822;BME280;4950;46.042;14.472;2023-04-24T09:32:36;96963.41;;;14.83;77.88
9822;BME280;4950;46.042;14.472;2023-04-24T09:35:12;96967.59;;;14.84;78.07
9822;BME280;4950;46.042;14.472;2023-04-24T09:37:40;96967.94;;;14.87;78.18
9822;BME280;4950;46.042;14.472;2023-04-24T09:40:19;96970.91;;;14.91;77.95
9822;BME280;4950;46.042;14.472;2023-04-24T09:42:51;96974.09;;;14.93;77.87
9822;BME280;4950;46.042;14.472;2023-04-24T09:45:18;96979.53;;;14.91;77.68
9822;BME280;4950;46.042;14.472;2023-04-24T09:47:45;96969.78;;;14.87;78.38
9822;BME280;4950;46.042;14.472;2023-04-24T09:50:14;96972.59;;;14.73;78.85
9822;BME280;4950;46.042;14.472;2023-04-24T09:52:44;96980.78;;;14.77;78.46
9822;BME280;4950;46.042;14.472;2023-04-24T09:55:13;96979.31;;;14.81;78.66
9822;BME280;4950;46.042;14.472;2023-04-24T09:57:55;96980.88;;;14.82;78.95
9822;BME280;4950;46.042;14.472;2023-04-24T10:00:24;96971.34;;;14.88;79.24
9822;BME280;4950;46.042;14.472;2023-04-24T10:02:54;96972.97;;;14.89;79.67
9822;BME280;4950;46.042;14.472;2023-04-24T10:05:23;96976.84;;;14.86;80.69
9822;BME280;4950;46.042;14.472;2023-04-24T10:07:51;96972.59;;;14.85;80.81
9822;BME280;4950;46.042;14.472;2023-04-24T10:10:17;96975.44;;;14.84;81.12
9822;BME280;4950;46.042;14.472;2023-04-24T10:12:44;96974.22;;;14.86;81.49
9822;BME280;4950;46.042;14.472;2023-04-24T10:15:13;96975.44;;;14.84;82.18
9822;BME280;4950;46.042;14.472;2023-04-24T10:17:40;96980.44;;;14.85;81.99
9822;BME280;4950;46.042;14.472;2023-04-24T10:20:08;96982.94;;;14.92;81.73
9822;BME280;4950;46.042;14.472;2023-04-24T10:22:36;96979.75;;;14.90;81.62
9822;BME280;4950;46.042;14.472;2023-04-24T10:25:04;96980.81;;;14.89;82.18
9822;BME280;4950;46.042;14.472;2023-04-24T10:27:32;96982.84;;;14.87;82.71
9822;BME280;4950;46.042;14.472;2023-04-24T10:30:00;96985.09;;;14.83;82.81
9822;BME280;4950;46.042;14.472;2023-04-24T10:32:29;96981.91;;;14.81;83.23
9822;BME280;4950;46.042;14.472;2023-04-24T10:34:56;96985.09;;;14.83;83.03
9822;BME280;4950;46.042;14.472;2023-04-24T10:37:24;96986.09;;;14.82;83.08
9822;BME280;4950;46.042;14.472;2023-04-24T10:39:51;96985.31;;;14.81;83.41
9822;BME280;4950;46.042;14.472;2023-04-24T10:42:20;96978.16;;;14.77;83.83
9822;BME280;4950;46.042;14.472;2023-04-24T10:44:47;96975.34;;;14.78;84.18
9822;BME280;4950;46.042;14.472;2023-04-24T10:47:14;96978.16;;;14.77;84.55
9822;BME280;4950;46.042;14.472;2023-04-24T10:49:42;96977.59;;;14.75;84.65
9822;BME280;4950;46.042;14.472;2023-04-24T10:52:09;96976.56;;;14.76;85.07
9822;BME280;4950;46.042;14.472;2023-04-24T10:54:41;96974.16;;;14.74;85.55
9822;BME280;4950;46.042;14.472;2023-04-24T10:57:28;96969.72;;;14.63;85.83
9822;BME280;4950;46.042;14.472;2023-04-24T11:00:14;96973.13;;;14.64;86.07
9822;BME280;4950;46.042;14.472;2023-04-24T11:02:41;96968.97;;;14.56;86.71
9822;BME280;4950;46.042;14.472;2023-04-24T11:05:16;96975.72;;;14.64;86.19
9822;BME280;4950;46.042;14.472;2023-04-24T11:10:27;96964.25;;;14.65;86.27
9822;BME280;4950;46.042;14.472;2023-04-24T11:12:54;96961.19;;;14.68;86.20
9822;BME280;4950;46.042;14.472;2023-04-24T11:15:23;96960.63;;;14.66;85.70
9822;BME280;4950;46.042;14.472;2023-04-24T11:17:55;96955.25;;;14.60;85.83
9822;BME280;4950;46.042;14.472;2023-04-24T11:20:23;96955.25;;;14.60;85.72
9822;BME280;4950;46.042;14.472;2023-04-24T11:22:53;96962.88;;;14.62;85.98
9822;BME280;4950;46.042;14.472;2023-04-24T11:25:23;96959.56;;;14.55;85.95
9822;BME280;4950;46.042;14.472;2023-04-24T11:27:50;96957.03;;;14.48;86.42
9822;BME280;4950;46.042;14.472;2023-04-24T11:30:29;96959.84;;;14.47;85.80
9822;BME280;4950;46.042;14.472;2023-04-24T11:33:01;96956.31;;;14.41;86.00
9822;BME280;4950;46.042;14.472;2023-04-24T11:35:35;96957.69;;;14.44;85.91
9822;BME280;4950;46.042;14.472;2023-04-24T11:38:03;96954.25;;;14.43;85.67
9822;BME280;4950;46.042;14.472;2023-04-24T11:40:30;96953.00;;;14.34;85.82
9822;BME280;4950;46.042;14.472;2023-04-24T11:42:59;96950.59;;;14.32;86.06
9822;BME280;4950;46.042;14.472;2023-04-24T11:45:27;96954.78;;;14.33;85.84
9822;BME280;4950;46.042;14.472;2023-04-24T11:47:54;96961.47;;;14.29;85.62
9822;BME280;4950;46.042;14.472;2023-04-24T11:50:22;96961.16;;;14.26;85.64
9822;BME280;4950;46.042;14.472;2023-04-24T11:52:52;96961.78;;;14.21;86.17
9822;BME280;4950;46.042;14.472;2023-04-24T11:55:26;96963.41;;;14.22;86.19
9822;BME280;4950;46.042;14.472;2023-04-24T11:57:55;96959.91;;;14.28;85.90
9822;BME280;4950;46.042;14.472;2023-04-24T12:00:24;96960.91;;;14.27;86.15
9822;BME280;4950;46.042;14.472;2023-04-24T12:02:51;96956.78;;;14.19;87.26
9822;BME280;4950;46.042;14.472;2023-04-24T12:05:22;96961.34;;;14.24;87.73
9822;BME280;4950;46.042;14.472;2023-04-24T12:07:49;96962.56;;;14.21;87.36
9822;BME280;4950;46.042;14.472;2023-04-24T12:10:21;96961.34;;;14.24;87.67
9822;BME280;4950;46.042;14.472;2023-04-24T12:12:49;96968.72;;;14.27;87.92
9822;BME280;4950;46.042;14.472;2023-04-24T12:15:17;96963.50;;;14.27;87.85
9822;BME280;4950;46.042;14.472;2023-04-24T12:17:44;96971.72;;;14.31;87.93
9822;BME280;4950;46.042;14.472;2023-04-24T12:20:12;96968.09;;;14.32;87.99
9822;BME280;4950;46.042;14.472;2023-04-24T12:22:46;96971.41;;;14.39;86.92
9822;BME280;4950;46.042;14.472;2023-04-24T12:25:13;96974.19;;;14.26;88.27
9822;BME280;4950;46.042;14.472;2023-04-24T12:27:43;96978.25;;;14.21;88.28
9822;BME280;4950;46.042;14.472;2023-04-24T12:30:10;96983.69;;;14.20;88.93
9822;BME280;4950;46.042;14.472;2023-04-24T12:32:41;96972.16;;;14.28;88.70
9822;BME280;4950;46.042;14.472;2023-04-24T12:35:08;96984.75;;;14.31;87.88
9822;BME280;4950;46.042;14.472;2023-04-24T12:37:35;96972.50;;;14.31;87.45
9822;BME280;4950;46.042;14.472;2023-04-24T12:40:04;96976.13;;;14.30;87.50
9822;BME280;4950;46.042;14.472;2023-04-24T12:42:32;96982.59;;;14.28;88.09
9822;BME280;4950;46.042;14.472;2023-04-24T12:45:03;96983.41;;;14.28;88.39
9822;BME280;4950;46.042;14.472;2023-04-24T12:47:31;96980.13;;;14.33;88.71
9822;BME280;4950;46.042;14.472;2023-04-24T12:49:58;96980.47;;;14.36;88.05
9822;BME280;4950;46.042;14.472;2023-04-24T12:52:26;96980.03;;;14.39;87.88
9822;BME280;4950;46.042;14.472;2023-04-24T12:54:53;96981.19;;;14.44;88.00
9822;BME280;4950;46.042;14.472;2023-04-24T12:57:20;96985.84;;;14.41;88.00
9822;BME280;4950;46.042;14.472;2023-04-24T12:59:47;96985.84;;;14.41;87.66
9822;BME280;4950;46.042;14.472;2023-04-24T13:02:15;96976.03;;;14.37;88.19
9822;BME280;4950;46.042;14.472;2023-04-24T13:04:44;96978.91;;;14.35;88.11
9822;BME280;4950;46.042;14.472;2023-04-24T13:07:11;96986.72;;;14.35;88.18
9822;BME280;4950;46.042;14.472;2023-04-24T13:09:38;96988.47;;;14.41;87.64
9822;BME280;4950;46.042;14.472;2023-04-24T13:12:05;96986.28;;;14.38;87.72
9822;BME280;4950;46.042;14.472;2023-04-24T13:14:32;96990.91;;;14.36;87.47